Time;durP1;ratioP1;P1;durP2;ratioP2;P2;SDS_P1;SDS_P2;PMS_P1;PMS_P2;Temp;Humidity;BMP_temperature;BMP_pressure;BME280_temperature;BME280_humidity;BME280_pressure;Samples;Min_cycle;Max_cycle;Signal;HPM_P1;HPM_P2
2023/08/05 00:01:07;;;;;;;8.37;4.47;;;16.10;99.90;;;;;;5013120;28;20547;-72
2023/08/05 00:03:34;;;;;;;9.33;5.07;;;16.00;99.90;;;;;;5008516;28;20458;-72
2023/08/05 00:06:02;;;;;;;6.60;4.47;;;16.00;99.90;;;;;;5002659;28;20482;-72
2023/08/05 00:08:28;;;;;;;5.30;4.80;;;16.00;99.90;;;;;;5012423;28;21052;-72
2023/08/05 00:10:55;;;;;;;6.70;5.20;;;15.90;99.90;;;;;;5012389;28;20425;-72
2023/08/05 00:13:21;;;;;;;5.40;4.90;;;15.80;99.90;;;;;;5013105;28;20446;-72
2023/08/05 00:15:49;;;;;;;4.90;4.60;;;15.80;99.90;;;;;;5012888;28;20425;-72
2023/08/05 00:18:16;;;;;;;8.10;4.87;;;15.80;99.90;;;;;;5002900;28;20511;-72
2023/08/05 00:20:42;;;;;;;8.00;5.43;;;15.70;99.90;;;;;;5005645;28;20542;-72
2023/08/05 00:23:10;;;;;;;6.43;5.83;;;15.80;99.90;;;;;;5004473;28;20470;-73
2023/08/05 00:25:37;;;;;;;5.10;4.60;;;15.70;99.90;;;;;;5005226;28;20432;-72
2023/08/05 00:28:04;;;;;;;6.80;4.80;;;15.70;99.90;;;;;;5010988;28;20448;-72
2023/08/05 00:30:30;;;;;;;7.80;5.47;;;15.60;99.90;;;;;;5012640;28;20471;-72
2023/08/05 00:32:57;;;;;;;6.53;5.73;;;15.60;99.90;;;;;;4999589;28;20430;-71
2023/08/05 00:35:24;;;;;;;7.87;5.67;;;15.50;99.90;;;;;;5012382;28;20429;-72
2023/08/05 00:37:50;;;;;;;7.77;5.30;;;15.50;99.90;;;;;;5007996;28;20962;-72
2023/08/05 00:40:18;;;;;;;6.23;5.63;;;15.50;99.90;;;;;;5012016;28;20490;-73
2023/08/05 00:42:45;;;;;;;10.83;5.50;;;15.50;99.90;;;;;;5012050;28;21010;-72
2023/08/05 00:45:12;;;;;;;6.50;5.90;;;15.40;99.90;;;;;;5012206;28;20429;-72
2023/08/05 00:47:39;;;;;;;7.10;5.10;;;15.40;99.90;;;;;;5005147;28;20455;-72
2023/08/05 00:50:07;;;;;;;12.13;5.40;;;15.40;99.90;;;;;;5010414;28;20445;-73
2023/08/05 00:52:34;;;;;;;6.10;5.50;;;15.40;99.90;;;;;;5006955;28;20430;-72
2023/08/05 00:55:00;;;;;;;6.60;5.83;;;15.40;99.90;;;;;;5009982;28;20440;-72
2023/08/05 00:57:28;;;;;;;10.00;5.30;;;15.30;99.90;;;;;;5012188;28;20450;-73
2023/08/05 00:59:55;;;;;;;6.10;5.60;;;15.30;99.90;;;;;;5007707;28;20495;-72
2023/08/05 01:02:22;;;;;;;5.50;5.00;;;15.30;99.90;;;;;;5012137;28;20507;-72
2023/08/05 01:04:49;;;;;;;8.30;5.20;;;15.30;99.90;;;;;;5011991;28;20913;-72
2023/08/05 01:07:18;;;;;;;5.43;4.93;;;15.30;99.90;;;;;;5011669;28;20827;-72
2023/08/05 01:09:45;;;;;;;5.50;5.00;;;15.30;99.90;;;;;;4997480;28;20505;-72
2023/08/05 01:12:12;;;;;;;6.90;5.17;;;15.20;99.90;;;;;;5010785;28;20442;-72
2023/08/05 01:14:40;;;;;;;8.37;5.70;;;15.20;99.90;;;;;;5004647;28;20503;-72
2023/08/05 01:17:07;;;;;;;7.83;5.00;;;15.20;99.90;;;;;;5001516;28;20887;-72
2023/08/05 01:19:35;;;;;;;5.87;5.23;;;15.20;99.90;;;;;;5003496;28;20532;-72
2023/08/05 01:22:11;;;;;;;6.40;5.00;;;15.20;99.90;;;;;;4998944;28;20429;-73
2023/08/05 01:24:45;;;;;;;6.50;4.27;;;15.10;99.90;;;;;;5011612;28;20462;-72
2023/08/05 01:27:13;;;;;;;5.30;4.70;;;15.10;99.90;;;;;;5008796;28;20458;-72
2023/08/05 01:29:40;;;;;;;5.37;4.50;;;15.10;99.90;;;;;;4993640;28;20485;-72
2023/08/05 01:32:08;;;;;;;7.77;4.80;;;15.00;99.90;;;;;;5011449;28;20786;-72
2023/08/05 01:34:35;;;;;;;5.83;4.50;;;15.00;99.90;;;;;;5002920;28;20433;-72
2023/08/05 01:37:02;;;;;;;5.80;4.70;;;15.00;99.90;;;;;;5011565;28;20424;-72
2023/08/05 01:39:28;;;;;;;11.63;5.13;;;15.00;99.90;;;;;;5011090;28;20482;-72
2023/08/05 01:41:55;;;;;;;5.30;4.80;;;15.00;99.90;;;;;;5011226;28;20454;-73
2023/08/05 01:44:23;;;;;;;4.70;4.30;;;15.00;99.90;;;;;;5011149;28;20483;-72
2023/08/05 01:46:50;;;;;;;7.23;4.93;;;15.00;99.90;;;;;;5009339;28;20429;-72
2023/08/05 01:49:16;;;;;;;5.80;5.23;;;15.00;99.90;;;;;;5008249;28;20854;-72
2023/08/05 01:51:43;;;;;;;5.47;4.60;;;15.00;99.90;;;;;;5008668;28;20512;-72
2023/08/05 01:54:09;;;;;;;7.67;4.70;;;15.00;99.90;;;;;;5006784;28;20430;-72
2023/08/05 01:56:36;;;;;;;5.83;5.33;;;14.90;99.90;;;;;;5005533;28;20417;-72
2023/08/05 01:59:03;;;;;;;6.80;5.00;;;14.90;99.90;;;;;;5010636;28;20445;-72
2023/08/05 02:01:44;;;;;;;5.37;4.70;;;14.90;99.90;;;;;;5014203;28;20481;-72
2023/08/05 02:04:12;;;;;;;5.80;5.13;;;14.90;99.90;;;;;;4999823;28;20459;-72
2023/08/05 02:06:38;;;;;;;7.20;5.17;;;14.90;99.90;;;;;;5003190;28;20435;-72
2023/08/05 02:09:05;;;;;;;7.53;4.90;;;14.90;99.90;;;;;;5013510;28;20448;-72
2023/08/05 02:11:32;;;;;;;5.73;5.10;;;14.80;99.90;;;;;;5017678;28;20429;-72
2023/08/05 02:13:59;;;;;;;6.90;5.20;;;14.80;99.90;;;;;;5017596;28;20524;-72
2023/08/05 02:16:26;;;;;;;7.53;4.60;;;14.80;99.90;;;;;;5017699;28;20774;-72
2023/08/05 02:18:54;;;;;;;6.03;4.63;;;14.80;99.90;;;;;;5011108;28;20488;-72
2023/08/05 02:21:22;;;;;;;5.70;5.07;;;14.80;99.90;;;;;;5005743;28;20454;-72
2023/08/05 02:23:48;;;;;;;6.53;4.20;;;14.70;99.90;;;;;;5007721;28;20489;-72
2023/08/05 02:26:15;;;;;;;6.73;4.90;;;14.70;99.90;;;;;;5001225;28;20471;-72
2023/08/05 02:28:41;;;;;;;7.20;4.47;;;14.70;99.90;;;;;;5001678;28;20458;-72
2023/08/05 02:31:08;;;;;;;7.03;4.70;;;14.70;99.90;;;;;;5014706;28;20490;-72
2023/08/05 02:33:35;;;;;;;5.50;4.50;;;14.60;99.90;;;;;;5012929;28;20847;-72
2023/08/05 02:36:03;;;;;;;6.23;4.73;;;14.60;99.90;;;;;;5017142;28;20480;-72
2023/08/05 02:38:30;;;;;;;5.40;4.63;;;14.60;99.90;;;;;;5017265;28;20474;-72
2023/08/05 02:40:57;;;;;;;5.27;4.77;;;14.60;99.90;;;;;;5007975;28;21037;-72
2023/08/05 02:43:24;;;;;;;11.00;5.03;;;14.50;99.90;;;;;;5017670;28;20524;-72
2023/08/05 02:45:54;;;;;;;6.20;5.40;;;14.50;99.90;;;;;;5008609;28;20437;-72
2023/08/05 02:48:21;;;;;;;6.17;4.83;;;14.50;99.90;;;;;;5008667;28;20444;-72
2023/08/05 02:50:48;;;;;;;5.60;5.03;;;14.50;99.90;;;;;;5014372;28;20453;-72
2023/08/05 02:53:16;;;;;;;6.73;5.10;;;14.50;99.90;;;;;;5004160;28;20454;-72
2023/08/05 02:55:42;;;;;;;5.00;4.50;;;14.50;99.90;;;;;;5017315;28;20438;-72
2023/08/05 02:58:09;;;;;;;7.33;4.70;;;14.50;99.90;;;;;;5016937;28;20539;-72
2023/08/05 03:00:36;;;;;;;9.20;5.40;;;14.50;99.90;;;;;;5006037;28;20543;-72
2023/08/05 03:03:02;;;;;;;9.93;5.27;;;14.50;99.90;;;;;;5008541;28;20439;-72
2023/08/05 03:05:29;;;;;;;4.50;4.07;;;14.50;99.90;;;;;;4992768;28;20522;-72
2023/08/05 03:07:56;;;;;;;10.80;4.93;;;14.40;99.90;;;;;;5010686;28;20425;-72
2023/08/05 03:10:24;;;;;;;8.13;5.30;;;14.40;99.90;;;;;;5017326;28;20421;-71
2023/08/05 03:12:51;;;;;;;5.30;4.70;;;14.40;99.90;;;;;;5015563;28;20420;-72
2023/08/05 03:15:17;;;;;;;7.37;5.20;;;14.40;99.90;;;;;;5005130;28;20867;-72
2023/08/05 03:17:44;;;;;;;8.23;4.67;;;14.40;99.90;;;;;;5013658;28;20462;-72
2023/08/05 03:20:24;;;;;;;6.80;5.10;;;14.30;99.90;;;;;;5011724;28;20424;-72
2023/08/05 03:22:52;;;;;;;5.10;4.60;;;14.30;99.90;;;;;;5006068;28;20428;-72
2023/08/05 03:25:19;;;;;;;7.37;4.60;;;14.30;99.90;;;;;;5008999;28;20505;-71
2023/08/05 03:27:47;;;;;;;6.00;5.40;;;14.20;99.90;;;;;;5000526;28;20487;-71
2023/08/05 03:30:13;;;;;;;6.90;5.03;;;14.20;99.90;;;;;;5009297;28;20425;-71
2023/08/05 03:32:40;;;;;;;9.10;5.33;;;14.20;99.90;;;;;;5002831;28;20454;-72
2023/08/05 03:35:07;;;;;;;5.60;4.90;;;14.10;99.90;;;;;;5000209;28;20433;-72
2023/08/05 03:37:34;;;;;;;8.73;4.97;;;14.10;99.90;;;;;;5013852;28;20421;-72
2023/08/05 03:40:01;;;;;;;5.40;4.90;;;14.10;99.90;;;;;;5011915;28;20988;-72
2023/08/05 03:42:27;;;;;;;8.70;5.17;;;14.10;99.90;;;;;;5005316;28;20468;-72
2023/08/05 03:44:55;;;;;;;5.50;5.00;;;14.10;99.90;;;;;;5012789;28;20842;-72
2023/08/05 03:47:22;;;;;;;7.37;5.67;;;14.10;99.90;;;;;;5003806;28;20433;-72
2023/08/05 03:49:49;;;;;;;8.93;5.60;;;14.10;99.90;;;;;;5013177;28;20437;-72
2023/08/05 03:52:15;;;;;;;7.30;5.50;;;14.10;99.90;;;;;;5010573;28;20976;-71
2023/08/05 03:54:42;;;;;;;6.70;6.00;;;14.10;99.90;;;;;;5013134;28;20425;-71
2023/08/05 03:57:09;;;;;;;5.73;5.23;;;14.10;99.90;;;;;;5007712;28;20469;-72
2023/08/05 03:59:36;;;;;;;6.80;5.13;;;14.10;99.90;;;;;;5010514;28;20471;-71
2023/08/05 04:02:04;;;;;;;9.37;5.30;;;14.10;99.90;;;;;;5010606;28;20467;-71
2023/08/05 04:04:31;;;;;;;6.60;5.90;;;14.10;99.90;;;;;;5005309;28;20953;-72
2023/08/05 04:06:58;;;;;;;5.93;5.30;;;14.10;99.90;;;;;;5006774;28;20473;-72
2023/08/05 04:09:25;;;;;;;11.20;5.90;;;14.10;99.90;;;;;;5007295;28;20495;-72
2023/08/05 04:11:53;;;;;;;7.73;5.43;;;14.10;99.90;;;;;;5012991;28;20479;-72
2023/08/05 04:14:20;;;;;;;12.07;5.77;;;14.10;99.90;;;;;;5012707;28;20483;-71
2023/08/05 04:16:48;;;;;;;6.83;5.57;;;14.10;99.90;;;;;;5002564;28;20878;-72
2023/08/05 04:19:17;;;;;;;7.50;5.60;;;14.10;99.90;;;;;;5006521;28;20870;-72
2023/08/05 04:21:47;;;;;;;6.57;5.37;;;14.10;99.90;;;;;;5006197;28;20461;-72
2023/08/05 04:24:16;;;;;;;8.23;5.70;;;14.10;99.90;;;;;;5010964;28;20866;-71
2023/08/05 04:26:42;;;;;;;6.77;6.03;;;14.10;99.90;;;;;;5002727;28;20453;-72
2023/08/05 04:29:10;;;;;;;7.80;5.20;;;14.10;99.90;;;;;;5012102;28;20948;-72
2023/08/05 04:31:38;;;;;;;10.70;6.20;;;14.10;99.90;;;;;;5012822;28;20421;-72
2023/08/05 04:34:04;;;;;;;6.20;5.70;;;14.10;99.90;;;;;;4998621;28;20431;-72
2023/08/05 04:36:32;;;;;;;8.73;5.10;;;14.20;99.90;;;;;;5004845;28;20466;-72
2023/08/05 04:39:02;;;;;;;11.33;6.10;;;14.20;99.90;;;;;;5012079;28;20520;-72
2023/08/05 04:41:29;;;;;;;9.83;5.60;;;14.30;99.90;;;;;;5010726;28;20565;-72
2023/08/05 04:43:57;;;;;;;6.77;5.50;;;14.30;99.90;;;;;;5005345;28;20846;-72
2023/08/05 04:46:24;;;;;;;5.33;4.73;;;14.40;99.90;;;;;;5001579;28;21018;-72
2023/08/05 04:48:50;;;;;;;8.03;5.20;;;14.40;99.90;;;;;;5005956;28;20444;-72
2023/08/05 04:51:17;;;;;;;8.40;5.40;;;14.50;99.90;;;;;;5012232;28;20425;-72
2023/08/05 04:53:45;;;;;;;10.67;5.00;;;14.50;99.90;;;;;;5012145;28;20500;-72
2023/08/05 04:56:12;;;;;;;5.13;4.67;;;14.60;99.90;;;;;;5004873;28;20463;-73
2023/08/05 04:58:39;;;;;;;6.60;4.63;;;14.60;99.90;;;;;;5005050;28;20450;-72
2023/08/05 05:01:06;;;;;;;7.80;5.20;;;14.60;99.90;;;;;;5003238;28;20541;-72
2023/08/05 05:03:32;;;;;;;5.63;4.43;;;14.70;99.90;;;;;;5012090;28;20420;-72
2023/08/05 05:06:00;;;;;;;14.33;4.63;;;14.70;99.90;;;;;;5011978;28;20870;-72
2023/08/05 05:08:27;;;;;;;5.43;4.57;;;14.70;99.90;;;;;;5008982;28;20820;-72
2023/08/05 05:10:55;;;;;;;8.00;4.37;;;14.80;99.90;;;;;;5004243;28;20471;-72
2023/08/05 05:13:22;;;;;;;5.83;4.77;;;14.80;99.90;;;;;;5011760;28;20479;-72
2023/08/05 05:15:52;;;;;;;7.20;4.80;;;14.90;99.90;;;;;;5008055;28;20954;-72
2023/08/05 05:18:19;;;;;;;4.93;4.43;;;15.00;99.90;;;;;;5001808;28;20456;-71
2023/08/05 05:20:49;;;;;;;8.37;5.27;;;15.10;99.90;;;;;;5011592;28;20982;-72
2023/08/05 05:23:15;;;;;;;5.87;4.70;;;15.20;99.90;;;;;;5003236;28;20458;-69
2023/08/05 05:25:42;;;;;;;5.40;4.60;;;15.30;99.90;;;;;;5005502;28;20448;-70
2023/08/05 05:28:10;;;;;;;9.57;4.60;;;15.40;99.90;;;;;;5003072;28;20498;-69
2023/08/05 05:30:37;;;;;;;7.67;4.90;;;15.60;99.90;;;;;;5011708;28;20579;-70
2023/08/05 05:33:04;;;;;;;6.57;4.00;;;15.70;99.90;;;;;;5009983;28;20450;-69
2023/08/05 05:35:30;;;;;;;4.87;4.37;;;15.90;99.90;;;;;;5006174;28;20459;-70
2023/08/05 05:37:57;;;;;;;6.57;4.37;;;16.10;99.90;;;;;;5007509;28;20447;-68
2023/08/05 05:40:24;;;;;;;7.53;3.50;;;16.20;99.90;;;;;;5011417;28;20461;-69
2023/08/05 05:42:51;;;;;;;4.67;3.60;;;16.40;99.90;;;;;;4988721;28;20479;-69
2023/08/05 05:45:21;;;;;;;4.53;3.77;;;16.50;99.90;;;;;;4996116;28;20470;-70
2023/08/05 05:47:48;;;;;;;3.97;3.57;;;16.60;99.90;;;;;;5002362;28;20458;-69
2023/08/05 05:50:16;;;;;;;5.13;3.50;;;16.80;99.90;;;;;;5009719;28;21009;-70
2023/08/05 05:52:43;;;;;;;4.27;3.07;;;16.90;99.90;;;;;;4995853;28;20464;-70
2023/08/05 05:55:09;;;;;;;3.60;3.30;;;17.00;99.90;;;;;;5004454;28;20433;-70
2023/08/05 05:57:36;;;;;;;5.70;3.23;;;17.10;99.90;;;;;;5002674;28;20848;-70
2023/08/05 06:00:04;;;;;;;5.37;3.07;;;17.20;99.90;;;;;;5006971;28;20566;-70
2023/08/05 06:02:33;;;;;;;3.87;3.00;;;17.40;99.90;;;;;;5010736;28;20493;-70
2023/08/05 06:05:00;;;;;;;5.77;3.80;;;17.50;99.90;;;;;;4998501;28;20460;-70
2023/08/05 06:07:27;;;;;;;3.17;2.97;;;17.60;99.90;;;;;;5000963;28;20459;-70
2023/08/05 06:09:53;;;;;;;3.20;3.00;;;17.80;99.90;;;;;;5010732;28;20486;-69
2023/08/05 06:12:22;;;;;;;3.73;3.37;;;17.90;99.90;;;;;;5010810;28;20454;-70
2023/08/05 06:14:49;;;;;;;4.00;3.17;;;18.00;99.90;;;;;;5010520;28;20454;-70
2023/08/05 06:17:16;;;;;;;6.60;3.90;;;18.00;99.90;;;;;;5008986;28;20455;-70
2023/08/05 06:19:44;;;;;;;3.67;3.37;;;18.20;99.90;;;;;;5005591;28;20895;-70
2023/08/05 06:22:11;;;;;;;5.10;3.50;;;18.40;99.90;;;;;;5002526;28;20889;-70
2023/08/05 06:24:38;;;;;;;6.80;3.70;;;18.70;99.90;;;;;;5010431;28;21004;-70
2023/08/05 06:27:05;;;;;;;4.07;3.60;;;18.90;99.90;;;;;;4991608;28;20511;-70
2023/08/05 06:29:32;;;;;;;5.20;3.50;;;19.10;99.90;;;;;;5010453;28;20505;-70
2023/08/05 06:31:59;;;;;;;8.30;3.47;;;19.30;99.90;;;;;;5010916;28;20867;-70
2023/08/05 06:34:25;;;;;;;3.30;3.00;;;19.40;99.90;;;;;;4986811;28;20455;-70
2023/08/05 06:36:53;;;;;;;3.37;3.07;;;19.50;99.90;;;;;;4988862;28;20512;-70
2023/08/05 06:39:20;;;;;;;6.07;3.10;;;19.50;99.90;;;;;;5008822;28;20528;-70
2023/08/05 06:41:46;;;;;;;4.33;3.50;;;19.50;99.90;;;;;;5010432;28;20885;-70
2023/08/05 06:44:13;;;;;;;3.60;3.30;;;19.70;99.90;;;;;;4991839;28;21035;-70
2023/08/05 06:46:40;;;;;;;9.73;3.40;;;19.70;99.90;;;;;;5010878;28;20446;-70
2023/08/05 06:49:06;;;;;;;4.23;3.40;;;19.90;99.90;;;;;;5006912;28;20473;-70
2023/08/05 06:51:33;;;;;;;4.20;3.80;;;20.00;99.90;;;;;;5014505;28;20501;-70
2023/08/05 06:54:01;;;;;;;3.77;3.47;;;20.20;99.90;;;;;;5004280;28;20451;-70
2023/08/05 06:56:28;;;;;;;4.40;3.60;;;20.20;99.90;;;;;;4995553;28;21226;-70
2023/08/05 06:58:55;;;;;;;3.93;3.40;;;20.20;99.90;;;;;;5005491;28;20462;-70
2023/08/05 07:01:21;;;;;;;4.23;3.63;;;20.20;99.90;;;;;;5014415;28;20510;-70
2023/08/05 07:03:50;;;;;;;7.50;3.93;;;20.20;99.90;;;;;;5010706;28;20934;-70
2023/08/05 07:06:16;;;;;;;7.70;4.53;;;20.20;99.90;;;;;;5012573;28;20446;-70
2023/08/05 07:08:43;;;;;;;4.50;4.10;;;20.20;99.90;;;;;;5013774;28;20470;-70
2023/08/05 07:11:12;;;;;;;5.10;3.63;;;20.10;99.90;;;;;;5001431;28;20558;-71
2023/08/05 07:13:38;;;;;;;4.27;3.60;;;20.10;99.90;;;;;;4995341;28;20542;-70
2023/08/05 07:16:05;;;;;;;4.20;3.77;;;20.00;99.90;;;;;;5000150;28;20466;-71
2023/08/05 07:18:32;;;;;;;4.50;3.70;;;19.90;99.90;;;;;;4999848;28;20517;-69
2023/08/05 07:20:59;;;;;;;6.10;4.23;;;19.90;99.90;;;;;;4991573;28;20505;-70
2023/08/05 07:23:25;;;;;;;3.90;3.30;;;20.10;99.90;;;;;;5003975;28;20494;-70
2023/08/05 07:25:52;;;;;;;6.90;3.70;;;20.30;99.90;;;;;;4997931;28;20450;-70
2023/08/05 07:28:20;;;;;;;5.60;3.27;;;20.50;99.90;;;;;;5003977;28;20481;-71
2023/08/05 07:30:47;;;;;;;5.57;3.30;;;20.80;99.90;;;;;;5005260;28;20498;-70
2023/08/05 07:33:14;;;;;;;6.40;3.40;;;21.20;99.90;;;;;;4997849;28;20455;-71
2023/08/05 07:35:41;;;;;;;5.73;3.80;;;21.30;99.90;;;;;;4998104;28;20474;-71
2023/08/05 07:38:10;;;;;;;6.00;3.57;;;21.50;99.90;;;;;;5009733;28;20541;-71
2023/08/05 07:40:37;;;;;;;3.93;3.23;;;21.60;99.90;;;;;;4999623;28;20450;-69
2023/08/05 07:43:05;;;;;;;6.43;3.17;;;21.80;99.90;;;;;;5005027;28;20491;-71
2023/08/05 07:45:35;;;;;;;3.70;3.10;;;22.10;99.90;;;;;;5003786;28;20462;-71
2023/08/05 07:48:06;;;;;;;3.80;3.27;;;22.40;99.90;;;;;;5004517;28;20453;-71
2023/08/05 07:50:33;;;;;;;3.40;3.10;;;22.60;99.90;;;;;;5001772;28;20462;-72
2023/08/05 07:53:00;;;;;;;9.10;3.40;;;22.80;99.90;;;;;;5007813;28;20510;-71
2023/08/05 07:55:29;;;;;;;4.73;3.17;;;22.90;99.90;;;;;;5009058;28;20517;-71
2023/08/05 07:57:56;;;;;;;4.30;3.00;;;23.20;99.90;;;;;;5004637;28;20449;-72
2023/08/05 08:00:23;;;;;;;4.07;2.90;;;23.40;99.90;;;;;;5011751;28;20528;-71
2023/08/05 08:02:51;;;;;;;10.10;3.50;;;23.60;99.90;;;;;;5012900;28;20489;-72
2023/08/05 08:05:19;;;;;;;3.63;3.23;;;23.90;99.90;;;;;;5007021;28;20461;-72
2023/08/05 08:07:46;;;;;;;4.10;2.80;;;23.90;99.90;;;;;;4993996;28;20490;-71
2023/08/05 08:10:13;;;;;;;7.77;3.37;;;23.80;99.90;;;;;;5002541;28;20469;-72
2023/08/05 08:12:40;;;;;;;3.63;2.97;;;23.80;99.90;;;;;;5004552;28;20500;-71
2023/08/05 08:15:07;;;;;;;3.60;3.00;;;23.80;99.90;;;;;;5010828;28;20533;-72
2023/08/05 08:17:34;;;;;;;4.00;2.63;;;23.80;99.90;;;;;;5011026;28;20450;-72
2023/08/05 08:20:02;;;;;;;3.93;3.10;;;23.70;99.90;;;;;;5011648;28;20470;-73
2023/08/05 08:22:29;;;;;;;3.90;2.80;;;23.90;99.90;;;;;;5005406;28;20494;-72
2023/08/05 08:24:55;;;;;;;5.33;2.80;;;23.90;99.90;;;;;;5002937;28;20466;-72
2023/08/05 08:27:22;;;;;;;3.13;2.90;;;23.70;99.90;;;;;;5011135;28;20588;-72
2023/08/05 08:29:49;;;;;;;3.30;2.87;;;23.50;99.90;;;;;;5006054;28;20826;-72
2023/08/05 08:32:15;;;;;;;3.33;2.50;;;23.20;99.90;;;;;;5002864;28;20518;-72
2023/08/05 08:34:42;;;;;;;3.23;2.90;;;22.90;99.90;;;;;;5004978;28;20451;-72
2023/08/05 08:37:10;;;;;;;5.17;3.20;;;22.60;99.90;;;;;;5009310;28;20458;-72
2023/08/05 08:39:37;;;;;;;5.77;3.13;;;22.40;99.90;;;;;;5010180;28;20536;-71
2023/08/05 08:42:04;;;;;;;4.63;3.10;;;22.30;99.90;;;;;;5011599;28;20521;-72
2023/08/05 08:44:33;;;;;;;4.53;3.40;;;22.00;99.90;;;;;;5004315;28;20455;-72
2023/08/05 08:47:00;;;;;;;3.30;3.03;;;21.80;99.90;;;;;;5006818;28;20453;-72
2023/08/05 08:49:28;;;;;;;4.30;3.37;;;22.10;99.90;;;;;;5003404;28;20470;-72
2023/08/05 08:51:55;;;;;;;6.20;4.03;;;22.50;99.90;;;;;;5009833;28;20930;-72
2023/08/05 08:54:27;;;;;;;6.23;3.20;;;22.70;99.90;;;;;;5008480;28;20506;-72
2023/08/05 08:56:54;;;;;;;3.50;3.20;;;22.70;99.90;;;;;;5003546;28;20467;-72
2023/08/05 08:59:20;;;;;;;5.30;3.00;;;22.60;99.90;;;;;;5005919;28;20477;-73
2023/08/05 09:01:48;;;;;;;5.33;3.30;;;22.40;99.90;;;;;;5002390;28;20864;-72
2023/08/05 09:04:19;;;;;;;6.03;3.47;;;22.30;99.90;;;;;;5010780;28;20443;-72
2023/08/05 09:06:48;;;;;;;4.83;3.70;;;22.00;99.90;;;;;;5010481;28;20950;-72
2023/08/05 09:09:14;;;;;;;10.17;3.20;;;21.80;99.90;;;;;;5004556;28;20537;-72
2023/08/05 09:11:42;;;;;;;3.60;3.30;;;21.80;99.90;;;;;;5003630;28;20458;-71
2023/08/05 09:14:09;;;;;;;3.10;2.80;;;21.80;99.90;;;;;;5002870;28;20452;-72
2023/08/05 09:16:55;;;;;;;4.07;2.60;;;21.80;99.90;;;;;;5003424;28;20466;-72
2023/08/05 09:19:25;;;;;;;3.57;3.27;;;21.80;99.90;;;;;;5002457;28;20541;-72
2023/08/05 09:21:51;;;;;;;4.87;3.40;;;21.80;99.90;;;;;;4993742;28;20551;-72
2023/08/05 09:24:22;;;;;;;3.73;3.43;;;21.70;99.90;;;;;;5007758;28;20894;-72
2023/08/05 09:26:55;;;;;;;6.07;3.30;;;21.60;99.90;;;;;;5008268;28;20525;-73
2023/08/05 09:29:22;;;;;;;5.30;2.90;;;21.50;99.90;;;;;;5004602;28;20482;-72
2023/08/05 09:31:55;;;;;;;15.13;3.20;;;21.30;99.90;;;;;;4992683;28;21204;-72
2023/08/05 09:34:22;;;;;;;3.40;3.10;;;21.20;99.90;;;;;;5010137;28;20449;-72
2023/08/05 09:36:49;;;;;;;5.70;3.20;;;21.20;99.90;;;;;;4988887;28;20454;-72
2023/08/05 09:39:16;;;;;;;4.13;2.97;;;21.20;99.90;;;;;;4980836;28;20487;-71
2023/08/05 09:41:52;;;;;;;3.22;2.58;;;21.20;99.90;;;;;;5003687;28;20926;-69
2023/08/05 09:44:19;;;;;;;4.03;2.93;;;21.20;99.90;;;;;;5001130;28;20255;-69
2023/08/05 09:46:46;;;;;;;5.27;3.00;;;21.20;99.90;;;;;;4989732;28;20452;-69
2023/08/05 09:49:14;;;;;;;4.67;2.97;;;21.10;99.90;;;;;;5005822;28;20461;-69
2023/08/05 09:51:44;;;;;;;4.30;2.93;;;21.10;99.90;;;;;;5011278;28;20450;-71
2023/08/05 09:54:14;;;;;;;8.93;4.40;;;21.00;99.90;;;;;;5010484;28;20442;-70
2023/08/05 09:56:41;;;;;;;2.90;2.70;;;20.80;99.90;;;;;;5001106;28;20461;-69
2023/08/05 09:59:12;;;;;;;4.90;2.80;;;20.70;99.90;;;;;;5000091;28;20478;-70
2023/08/05 10:01:40;;;;;;;3.30;3.00;;;20.50;99.90;;;;;;5010384;28;20453;-71
2023/08/05 10:04:09;;;;;;;3.40;3.10;;;20.30;99.90;;;;;;5003655;28;20533;-70
2023/08/05 10:06:38;;;;;;;4.77;2.87;;;20.20;99.90;;;;;;5000024;28;20513;-70
2023/08/05 10:09:05;;;;;;;3.43;3.20;;;20.10;99.90;;;;;;5004408;28;20522;-69
2023/08/05 10:11:32;;;;;;;3.70;3.37;;;20.10;99.90;;;;;;4995137;28;20869;-70
2023/08/05 10:14:02;;;;;;;7.37;3.63;;;20.10;99.90;;;;;;5010908;28;20508;-69
2023/08/05 10:16:31;;;;;;;6.73;3.70;;;20.10;99.90;;;;;;5010579;28;20960;-70
2023/08/05 10:18:58;;;;;;;7.90;3.70;;;20.30;99.90;;;;;;5010461;28;20550;-69
2023/08/05 10:21:37;;;;;;;8.67;3.67;;;20.40;99.90;;;;;;4994946;28;20966;-69
2023/08/05 10:24:05;;;;;;;3.23;2.93;;;20.40;99.90;;;;;;5014811;28;20485;-69
2023/08/05 10:26:49;;;;;;;3.83;3.13;;;20.40;99.90;;;;;;5005521;28;21012;-69
2023/08/05 10:29:29;;;;;;;5.10;3.10;;;20.50;99.90;;;;;;5013332;28;20561;-69
2023/08/05 10:32:15;;;;;;;7.47;2.90;;;20.60;99.90;;;;;;5001661;28;20492;-70
2023/08/05 10:34:41;;;;;;;3.60;3.30;;;20.60;99.90;;;;;;4996404;28;20447;-69
2023/08/05 10:37:08;;;;;;;4.83;3.80;;;20.70;99.90;;;;;;5011128;28;20461;-69
2023/08/05 10:39:44;;;;;;;3.77;2.93;;;20.80;99.90;;;;;;5006079;28;20469;-69
2023/08/05 10:42:31;;;;;;;7.03;3.60;;;21.00;99.90;;;;;;5014464;28;20441;-70
2023/08/05 10:44:59;;;;;;;4.80;3.10;;;21.30;99.90;;;;;;5012327;28;20516;-71
2023/08/05 10:47:28;;;;;;;7.20;2.97;;;21.80;99.90;;;;;;5008171;28;20963;-69
2023/08/05 10:49:58;;;;;;;3.40;2.40;;;22.20;99.90;;;;;;5013044;28;20435;-71
2023/08/05 10:52:25;;;;;;;3.60;3.10;;;22.30;99.90;;;;;;5006263;28;20450;-71
2023/08/05 10:54:53;;;;;;;3.80;2.87;;;22.30;99.90;;;;;;5008445;28;20454;-70
2023/08/05 10:57:47;;;;;;;4.53;2.37;;;22.40;99.90;;;;;;5008405;28;20455;-71
2023/08/05 11:00:22;;;;;;;2.90;2.60;;;22.60;99.90;;;;;;5002765;28;20454;-70
2023/08/05 11:03:23;;;;;;;4.83;3.40;;;22.80;99.90;;;;;;5009370;28;20494;-71
2023/08/05 11:05:50;;;;;;;3.07;2.80;;;22.70;99.90;;;;;;5014361;28;20541;-70
2023/08/05 11:08:20;;;;;;;3.33;3.03;;;22.70;99.90;;;;;;5008559;28;20471;-70
2023/08/05 11:10:47;;;;;;;5.57;2.93;;;22.70;99.90;;;;;;5013265;28;21152;-70
2023/08/05 11:13:14;;;;;;;3.80;2.80;;;23.00;99.90;;;;;;4976402;28;20459;-71
2023/08/05 11:15:41;;;;;;;2.77;2.57;;;23.50;99.90;;;;;;4999487;28;20450;-71
2023/08/05 11:18:09;;;;;;;4.87;2.20;;;23.60;99.90;;;;;;5003837;28;20826;-71
2023/08/05 11:20:37;;;;;;;3.47;2.83;;;23.50;99.90;;;;;;5007513;28;20459;-69
2023/08/05 11:23:03;;;;;;;4.53;2.87;;;23.20;99.90;;;;;;5001509;28;20525;-69
2023/08/05 11:25:30;;;;;;;2.70;2.50;;;22.90;99.90;;;;;;5003928;28;22076;-70
2023/08/05 11:27:57;;;;;;;2.87;2.67;;;22.50;99.90;;;;;;5000367;28;20510;-69
2023/08/05 11:30:23;;;;;;;4.07;2.93;;;22.20;99.90;;;;;;5007031;28;20461;-69
2023/08/05 11:32:52;;;;;;;3.00;2.80;;;22.00;99.90;;;;;;5013352;28;20458;-70
2023/08/05 11:35:20;;;;;;;5.83;3.37;;;21.80;99.90;;;;;;4997671;28;20471;-69
2023/08/05 11:37:47;;;;;;;9.70;4.13;;;21.70;99.90;;;;;;5013084;28;21048;-69
2023/08/05 11:40:14;;;;;;;2.80;2.60;;;21.60;99.90;;;;;;5004412;28;20874;-69
2023/08/05 11:42:40;;;;;;;3.77;2.93;;;21.50;99.90;;;;;;5013375;28;20462;-69
2023/08/05 11:45:11;;;;;;;2.83;2.50;;;21.50;99.90;;;;;;5013733;28;20477;-69
2023/08/05 11:47:38;;;;;;;3.10;2.90;;;21.40;99.90;;;;;;5009904;28;20526;-69
2023/08/05 11:50:05;;;;;;;3.40;2.90;;;21.40;99.90;;;;;;5008611;28;20917;-69
2023/08/05 11:52:33;;;;;;;4.87;3.30;;;21.40;99.90;;;;;;5012759;28;20516;-69
2023/08/05 11:55:02;;;;;;;4.80;2.87;;;21.40;99.90;;;;;;4997152;28;20460;-69
2023/08/05 11:57:29;;;;;;;6.03;2.67;;;21.30;99.90;;;;;;5002831;28;20450;-69
2023/08/05 11:59:56;;;;;;;3.50;2.73;;;21.30;99.90;;;;;;5007404;28;20470;-68
2023/08/05 12:02:25;;;;;;;4.63;3.13;;;21.30;99.90;;;;;;4999753;28;20484;-69
2023/08/05 12:04:56;;;;;;;4.87;3.17;;;21.30;99.90;;;;;;5010238;28;20854;-70
2023/08/05 12:07:23;;;;;;;4.03;2.80;;;21.40;99.90;;;;;;5008824;28;20851;-69
2023/08/05 12:10:08;;;;;;;6.20;3.20;;;21.50;99.90;;;;;;5008044;28;20475;-70
2023/08/05 12:12:35;;;;;;;8.40;2.57;;;21.80;99.90;;;;;;5011002;28;20891;-69
2023/08/05 12:15:12;;;;;;;2.80;2.30;;;22.60;99.90;;;;;;5004003;28;20518;-69
2023/08/05 12:17:39;;;;;;;3.47;2.50;;;23.20;99.90;;;;;;5009407;28;20446;-69
2023/08/05 12:20:10;;;;;;;3.43;2.57;;;23.60;99.90;;;;;;4999308;28;20526;-69
2023/08/05 12:22:36;;;;;;;2.80;2.60;;;24.30;99.90;;;;;;5003212;28;20545;-70
2023/08/05 12:25:04;;;;;;;2.90;2.60;;;24.80;99.90;;;;;;4998322;28;20841;-69
2023/08/05 12:27:31;;;;;;;3.23;2.33;;;25.10;99.90;;;;;;4999979;28;20458;-70
2023/08/05 12:29:58;;;;;;;3.20;2.40;;;25.50;99.90;;;;;;5001294;28;20483;-69
2023/08/05 12:32:25;;;;;;;2.60;2.30;;;25.40;99.90;;;;;;5002498;28;20439;-69
2023/08/05 12:34:52;;;;;;;2.47;2.20;;;25.20;99.90;;;;;;5000720;28;20442;-69
2023/08/05 12:37:18;;;;;;;2.57;2.37;;;24.70;99.90;;;;;;5002804;28;21007;-70
2023/08/05 12:39:45;;;;;;;3.70;2.60;;;24.60;99.90;;;;;;5000351;28;20521;-69
2023/08/05 12:42:13;;;;;;;2.77;2.10;;;24.80;99.90;;;;;;5009027;28;20447;-70
2023/08/05 12:44:41;;;;;;;4.43;2.23;;;25.40;99.90;;;;;;5009515;28;20868;-70
2023/08/05 12:47:07;;;;;;;3.53;2.53;;;25.50;99.90;;;;;;5008812;28;20468;-70
2023/08/05 12:49:35;;;;;;;3.40;2.70;;;25.50;99.90;;;;;;5002812;28;20528;-70